sensor_id;sensor_type;location;lat;lon;timestamp;P1;durP1;ratioP1;P2;durP2;ratioP2
39218;SDS011;24934;52.752;6.964;2023-02-19T00:01:39;91.07;;;42.17;;
39218;SDS011;24934;52.752;6.964;2023-02-19T00:04:11;87.30;;;41.13;;
39218;SDS011;24934;52.752;6.964;2023-02-19T00:06:39;84.57;;;41.37;;
39218;SDS011;24934;52.752;6.964;2023-02-19T00:09:04;74.47;;;40.43;;
39218;SDS011;24934;52.752;6.964;2023-02-19T00:11:31;81.87;;;40.70;;
39218;SDS011;24934;52.752;6.964;2023-02-19T00:13:58;78.90;;;38.83;;
39218;SDS011;24934;52.752;6.964;2023-02-19T00:16:27;82.97;;;39.53;;
39218;SDS011;24934;52.752;6.964;2023-02-19T00:18:57;80.60;;;39.33;;
39218;SDS011;24934;52.752;6.964;2023-02-19T00:21:25;80.37;;;39.07;;
39218;SDS011;24934;52.752;6.964;2023-02-19T00:23:52;83.03;;;39.90;;
39218;SDS011;24934;52.752;6.964;2023-02-19T00:26:25;85.97;;;39.90;;
39218;SDS011;24934;52.752;6.964;2023-02-19T00:28:51;78.93;;;39.20;;
39218;SDS011;24934;52.752;6.964;2023-02-19T00:31:19;78.30;;;39.47;;
39218;SDS011;24934;52.752;6.964;2023-02-19T00:33:48;79.70;;;40.67;;
39218;SDS011;24934;52.752;6.964;2023-02-19T00:36:15;72.23;;;39.70;;
39218;SDS011;24934;52.752;6.964;2023-02-19T00:38:44;73.23;;;39.23;;
39218;SDS011;24934;52.752;6.964;2023-02-19T00:41:10;72.50;;;38.77;;
39218;SDS011;24934;52.752;6.964;2023-02-19T00:43:49;83.10;;;39.80;;
39218;SDS011;24934;52.752;6.964;2023-02-19T00:46:32;69.43;;;38.23;;
39218;SDS011;24934;52.752;6.964;2023-02-19T00:49:03;79.40;;;38.13;;
39218;SDS011;24934;52.752;6.964;2023-02-19T00:51:31;77.33;;;38.40;;
39218;SDS011;24934;52.752;6.964;2023-02-19T00:53:59;75.47;;;37.83;;
39218;SDS011;24934;52.752;6.964;2023-02-19T00:56:26;80.13;;;38.77;;
39218;SDS011;24934;52.752;6.964;2023-02-19T00:58:54;76.97;;;39.20;;
39218;SDS011;24934;52.752;6.964;2023-02-19T01:01:20;78.60;;;40.33;;
39218;SDS011;24934;52.752;6.964;2023-02-19T01:03:46;85.93;;;41.07;;
39218;SDS011;24934;52.752;6.964;2023-02-19T01:06:14;85.63;;;41.23;;
39218;SDS011;24934;52.752;6.964;2023-02-19T01:08:42;89.23;;;41.93;;
39218;SDS011;24934;52.752;6.964;2023-02-19T01:11:08;92.30;;;43.60;;
39218;SDS011;24934;52.752;6.964;2023-02-19T01:13:34;84.40;;;42.73;;
39218;SDS011;24934;52.752;6.964;2023-02-19T01:16:04;91.13;;;44.60;;
39218;SDS011;24934;52.752;6.964;2023-02-19T01:18:31;89.17;;;43.50;;
39218;SDS011;24934;52.752;6.964;2023-02-19T01:21:07;90.13;;;43.43;;
39218;SDS011;24934;52.752;6.964;2023-02-19T01:23:36;89.10;;;43.87;;
39218;SDS011;24934;52.752;6.964;2023-02-19T01:26:05;87.10;;;43.40;;
39218;SDS011;24934;52.752;6.964;2023-02-19T01:28:32;94.23;;;43.03;;
39218;SDS011;24934;52.752;6.964;2023-02-19T01:31:04;87.37;;;44.43;;
39218;SDS011;24934;52.752;6.964;2023-02-19T01:33:32;88.53;;;43.17;;
39218;SDS011;24934;52.752;6.964;2023-02-19T01:35:58;89.37;;;44.83;;
39218;SDS011;24934;52.752;6.964;2023-02-19T01:38:26;85.00;;;43.23;;
39218;SDS011;24934;52.752;6.964;2023-02-19T01:40:53;93.03;;;44.83;;
39218;SDS011;24934;52.752;6.964;2023-02-19T01:43:23;85.47;;;42.97;;
39218;SDS011;24934;52.752;6.964;2023-02-19T01:45:49;87.03;;;43.23;;
39218;SDS011;24934;52.752;6.964;2023-02-19T01:48:16;96.30;;;43.33;;
39218;SDS011;24934;52.752;6.964;2023-02-19T01:50:48;98.93;;;42.83;;
39218;SDS011;24934;52.752;6.964;2023-02-19T01:53:21;83.70;;;42.20;;
39218;SDS011;24934;52.752;6.964;2023-02-19T01:55:51;85.63;;;40.60;;
39218;SDS011;24934;52.752;6.964;2023-02-19T01:58:19;81.30;;;40.13;;
39218;SDS011;24934;52.752;6.964;2023-02-19T02:00:45;79.17;;;40.77;;
39218;SDS011;24934;52.752;6.964;2023-02-19T02:03:11;83.00;;;39.43;;
39218;SDS011;24934;52.752;6.964;2023-02-19T02:08:25;71.67;;;37.73;;
39218;SDS011;24934;52.752;6.964;2023-02-19T02:11:09;73.43;;;36.70;;
39218;SDS011;24934;52.752;6.964;2023-02-19T02:13:35;74.40;;;35.70;;
39218;SDS011;24934;52.752;6.964;2023-02-19T02:16:05;68.50;;;35.67;;
39218;SDS011;24934;52.752;6.964;2023-02-19T02:19:01;77.53;;;34.60;;
39218;SDS011;24934;52.752;6.964;2023-02-19T02:24:50;62.33;;;34.60;;
39218;SDS011;24934;52.752;6.964;2023-02-19T02:35:26;64.07;;;33.77;;
39218;SDS011;24934;52.752;6.964;2023-02-19T02:37:58;61.73;;;33.07;;
39218;SDS011;24934;52.752;6.964;2023-02-19T02:40:26;60.80;;;33.33;;
39218;SDS011;24934;52.752;6.964;2023-02-19T02:42:55;55.73;;;31.70;;
39218;SDS011;24934;52.752;6.964;2023-02-19T02:45:24;56.30;;;32.47;;
39218;SDS011;24934;52.752;6.964;2023-02-19T02:48:15;54.73;;;32.07;;
39218;SDS011;24934;52.752;6.964;2023-02-19T02:50:52;54.37;;;30.43;;
39218;SDS011;24934;52.752;6.964;2023-02-19T02:53:32;54.27;;;30.97;;
39218;SDS011;24934;52.752;6.964;2023-02-19T02:56:36;50.53;;;30.97;;
39218;SDS011;24934;52.752;6.964;2023-02-19T02:59:03;48.57;;;30.37;;
39218;SDS011;24934;52.752;6.964;2023-02-19T03:01:42;43.23;;;29.27;;
39218;SDS011;24934;52.752;6.964;2023-02-19T03:04:44;42.00;;;29.93;;
39218;SDS011;24934;52.752;6.964;2023-02-19T03:07:35;39.97;;;29.20;;
39218;SDS011;24934;52.752;6.964;2023-02-19T03:10:23;47.07;;;28.97;;
39218;SDS011;24934;52.752;6.964;2023-02-19T03:12:52;36.13;;;28.67;;
39218;SDS011;24934;52.752;6.964;2023-02-19T03:15:40;40.67;;;29.23;;
39218;SDS011;24934;52.752;6.964;2023-02-19T03:18:28;43.30;;;29.13;;
39218;SDS011;24934;52.752;6.964;2023-02-19T03:21:14;43.20;;;28.17;;
39218;SDS011;24934;52.752;6.964;2023-02-19T03:23:43;36.23;;;28.23;;
39218;SDS011;24934;52.752;6.964;2023-02-19T03:26:28;39.37;;;27.93;;
39218;SDS011;24934;52.752;6.964;2023-02-19T03:28:56;44.27;;;28.63;;
39218;SDS011;24934;52.752;6.964;2023-02-19T03:31:41;40.87;;;27.57;;
39218;SDS011;24934;52.752;6.964;2023-02-19T03:34:09;46.83;;;28.33;;
39218;SDS011;24934;52.752;6.964;2023-02-19T03:36:39;40.83;;;28.53;;
39218;SDS011;24934;52.752;6.964;2023-02-19T03:39:10;40.17;;;29.10;;
39218;SDS011;24934;52.752;6.964;2023-02-19T03:44:52;39.93;;;28.37;;
39218;SDS011;24934;52.752;6.964;2023-02-19T03:47:50;41.90;;;28.67;;
39218;SDS011;24934;52.752;6.964;2023-02-19T03:50:40;44.00;;;28.93;;
39218;SDS011;24934;52.752;6.964;2023-02-19T03:53:13;39.03;;;29.57;;
39218;SDS011;24934;52.752;6.964;2023-02-19T03:56:02;39.73;;;30.67;;
39218;SDS011;24934;52.752;6.964;2023-02-19T03:59:00;40.63;;;30.33;;
39218;SDS011;24934;52.752;6.964;2023-02-19T04:04:40;38.23;;;28.70;;
39218;SDS011;24934;52.752;6.964;2023-02-19T04:07:12;28.50;;;25.13;;
39218;SDS011;24934;52.752;6.964;2023-02-19T04:09:40;22.37;;;20.37;;
39218;SDS011;24934;52.752;6.964;2023-02-19T04:12:10;21.00;;;19.30;;
39218;SDS011;24934;52.752;6.964;2023-02-19T04:14:40;20.77;;;19.07;;
39218;SDS011;24934;52.752;6.964;2023-02-19T04:17:16;20.20;;;18.60;;
39218;SDS011;24934;52.752;6.964;2023-02-19T04:19:52;20.63;;;18.93;;
39218;SDS011;24934;52.752;6.964;2023-02-19T04:22:21;20.90;;;19.20;;
39218;SDS011;24934;52.752;6.964;2023-02-19T04:24:47;20.73;;;19.10;;
39218;SDS011;24934;52.752;6.964;2023-02-19T04:27:14;19.63;;;18.13;;
39218;SDS011;24934;52.752;6.964;2023-02-19T04:29:44;20.17;;;18.63;;
39218;SDS011;24934;52.752;6.964;2023-02-19T04:32:10;20.17;;;18.67;;
39218;SDS011;24934;52.752;6.964;2023-02-19T04:34:39;20.73;;;19.13;;
39218;SDS011;24934;52.752;6.964;2023-02-19T04:37:05;20.17;;;18.57;;
39218;SDS011;24934;52.752;6.964;2023-02-19T04:39:31;21.17;;;19.63;;
39218;SDS011;24934;52.752;6.964;2023-02-19T04:41:59;21.43;;;19.73;;
39218;SDS011;24934;52.752;6.964;2023-02-19T04:44:25;21.57;;;19.97;;
39218;SDS011;24934;52.752;6.964;2023-02-19T04:46:50;20.93;;;19.27;;
39218;SDS011;24934;52.752;6.964;2023-02-19T04:49:16;21.40;;;19.80;;
39218;SDS011;24934;52.752;6.964;2023-02-19T04:51:41;21.83;;;20.13;;
39218;SDS011;24934;52.752;6.964;2023-02-19T04:54:07;20.80;;;19.10;;
39218;SDS011;24934;52.752;6.964;2023-02-19T04:56:33;21.63;;;19.87;;
39218;SDS011;24934;52.752;6.964;2023-02-19T04:58:59;23.07;;;21.17;;
39218;SDS011;24934;52.752;6.964;2023-02-19T05:01:24;22.67;;;20.87;;
39218;SDS011;24934;52.752;6.964;2023-02-19T05:03:51;22.33;;;20.53;;
39218;SDS011;24934;52.752;6.964;2023-02-19T05:06:16;22.00;;;20.20;;
39218;SDS011;24934;52.752;6.964;2023-02-19T05:08:42;23.33;;;21.33;;
39218;SDS011;24934;52.752;6.964;2023-02-19T05:11:08;21.63;;;19.83;;
39218;SDS011;24934;52.752;6.964;2023-02-19T05:13:38;22.80;;;20.80;;
39218;SDS011;24934;52.752;6.964;2023-02-19T05:16:05;21.33;;;19.73;;
39218;SDS011;24934;52.752;6.964;2023-02-19T05:18:33;21.03;;;19.37;;
39218;SDS011;24934;52.752;6.964;2023-02-19T05:20:59;21.37;;;19.67;;
39218;SDS011;24934;52.752;6.964;2023-02-19T05:23:26;20.70;;;19.10;;
39218;SDS011;24934;52.752;6.964;2023-02-19T05:25:52;20.80;;;19.10;;
39218;SDS011;24934;52.752;6.964;2023-02-19T05:28:18;21.30;;;19.50;;
39218;SDS011;24934;52.752;6.964;2023-02-19T05:30:52;21.70;;;19.80;;
39218;SDS011;24934;52.752;6.964;2023-02-19T05:33:19;22.17;;;20.27;;
39218;SDS011;24934;52.752;6.964;2023-02-19T05:35:46;22.00;;;20.00;;
39218;SDS011;24934;52.752;6.964;2023-02-19T05:38:14;22.20;;;20.20;;
39218;SDS011;24934;52.752;6.964;2023-02-19T05:40:40;22.37;;;20.27;;
39218;SDS011;24934;52.752;6.964;2023-02-19T05:43:06;22.10;;;20.20;;
39218;SDS011;24934;52.752;6.964;2023-02-19T05:45:35;23.10;;;21.00;;
39218;SDS011;24934;52.752;6.964;2023-02-19T05:48:02;22.67;;;20.63;;
39218;SDS011;24934;52.752;6.964;2023-02-19T05:50:28;24.17;;;21.67;;
39218;SDS011;24934;52.752;6.964;2023-02-19T05:52:55;24.23;;;21.73;;
39218;SDS011;24934;52.752;6.964;2023-02-19T05:55:23;23.70;;;21.50;;
39218;SDS011;24934;52.752;6.964;2023-02-19T05:57:48;24.37;;;21.87;;
39218;SDS011;24934;52.752;6.964;2023-02-19T06:00:15;25.07;;;22.57;;
39218;SDS011;24934;52.752;6.964;2023-02-19T06:02:42;24.83;;;22.27;;
39218;SDS011;24934;52.752;6.964;2023-02-19T06:05:08;25.73;;;23.17;;
39218;SDS011;24934;52.752;6.964;2023-02-19T06:07:35;26.07;;;23.47;;
39218;SDS011;24934;52.752;6.964;2023-02-19T06:10:00;25.80;;;22.90;;
39218;SDS011;24934;52.752;6.964;2023-02-19T06:12:26;26.80;;;23.90;;
39218;SDS011;24934;52.752;6.964;2023-02-19T06:14:52;27.73;;;24.73;;
39218;SDS011;24934;52.752;6.964;2023-02-19T06:17:18;27.73;;;24.87;;
39218;SDS011;24934;52.752;6.964;2023-02-19T06:19:43;25.60;;;23.00;;
39218;SDS011;24934;52.752;6.964;2023-02-19T06:22:09;24.63;;;21.83;;
39218;SDS011;24934;52.752;6.964;2023-02-19T06:24:36;24.57;;;21.90;;
39218;SDS011;24934;52.752;6.964;2023-02-19T06:27:07;23.53;;;21.13;;
39218;SDS011;24934;52.752;6.964;2023-02-19T06:29:33;24.03;;;21.53;;
39218;SDS011;24934;52.752;6.964;2023-02-19T06:32:02;23.03;;;20.83;;
39218;SDS011;24934;52.752;6.964;2023-02-19T06:34:29;23.00;;;20.77;;
39218;SDS011;24934;52.752;6.964;2023-02-19T06:36:55;24.43;;;21.83;;
39218;SDS011;24934;52.752;6.964;2023-02-19T06:39:20;24.73;;;22.13;;
39218;SDS011;24934;52.752;6.964;2023-02-19T06:41:46;24.73;;;22.10;;
39218;SDS011;24934;52.752;6.964;2023-02-19T06:44:12;24.50;;;22.10;;
39218;SDS011;24934;52.752;6.964;2023-02-19T06:46:37;25.57;;;22.97;;
39218;SDS011;24934;52.752;6.964;2023-02-19T06:49:06;24.17;;;21.77;;
39218;SDS011;24934;52.752;6.964;2023-02-19T06:51:32;25.43;;;22.93;;
39218;SDS011;24934;52.752;6.964;2023-02-19T06:53:58;25.17;;;22.77;;
39218;SDS011;24934;52.752;6.964;2023-02-19T06:58:57;24.90;;;22.40;;
39218;SDS011;24934;52.752;6.964;2023-02-19T07:01:25;24.77;;;22.20;;
39218;SDS011;24934;52.752;6.964;2023-02-19T07:03:51;24.67;;;22.07;;
39218;SDS011;24934;52.752;6.964;2023-02-19T07:06:21;24.40;;;21.80;;
39218;SDS011;24934;52.752;6.964;2023-02-19T07:08:47;24.67;;;22.23;;
39218;SDS011;24934;52.752;6.964;2023-02-19T07:11:13;24.20;;;21.80;;
39218;SDS011;24934;52.752;6.964;2023-02-19T07:13:39;25.20;;;22.60;;
39218;SDS011;24934;52.752;6.964;2023-02-19T07:16:06;26.13;;;23.07;;
39218;SDS011;24934;52.752;6.964;2023-02-19T07:18:33;24.30;;;21.93;;
39218;SDS011;24934;52.752;6.964;2023-02-19T07:21:02;24.73;;;22.23;;
39218;SDS011;24934;52.752;6.964;2023-02-19T07:23:29;25.37;;;22.67;;
39218;SDS011;24934;52.752;6.964;2023-02-19T07:25:55;25.00;;;22.40;;
39218;SDS011;24934;52.752;6.964;2023-02-19T07:28:21;24.97;;;22.27;;
39218;SDS011;24934;52.752;6.964;2023-02-19T07:30:47;25.30;;;22.50;;
39218;SDS011;24934;52.752;6.964;2023-02-19T07:33:12;24.47;;;22.03;;
39218;SDS011;24934;52.752;6.964;2023-02-19T07:35:43;24.93;;;22.37;;
39218;SDS011;24934;52.752;6.964;2023-02-19T07:38:15;25.10;;;22.40;;
39218;SDS011;24934;52.752;6.964;2023-02-19T07:40:49;27.17;;;21.63;;
39218;SDS011;24934;52.752;6.964;2023-02-19T07:43:25;25.37;;;21.77;;
39218;SDS011;24934;52.752;6.964;2023-02-19T07:45:56;28.67;;;22.30;;
39218;SDS011;24934;52.752;6.964;2023-02-19T07:48:21;26.67;;;22.70;;
39218;SDS011;24934;52.752;6.964;2023-02-19T07:50:50;26.43;;;22.60;;
39218;SDS011;24934;52.752;6.964;2023-02-19T07:53:20;26.20;;;22.87;;
39218;SDS011;24934;52.752;6.964;2023-02-19T07:55:47;28.97;;;23.27;;
39218;SDS011;24934;52.752;6.964;2023-02-19T07:58:14;24.93;;;22.27;;
39218;SDS011;24934;52.752;6.964;2023-02-19T08:00:40;25.97;;;22.93;;
39218;SDS011;24934;52.752;6.964;2023-02-19T08:03:05;27.83;;;24.03;;
39218;SDS011;24934;52.752;6.964;2023-02-19T08:05:39;26.83;;;23.93;;
39218;SDS011;24934;52.752;6.964;2023-02-19T08:08:15;28.27;;;24.93;;
39218;SDS011;24934;52.752;6.964;2023-02-19T08:10:41;28.33;;;24.03;;
39218;SDS011;24934;52.752;6.964;2023-02-19T08:13:26;29.67;;;24.40;;
39218;SDS011;24934;52.752;6.964;2023-02-19T08:18:22;30.37;;;24.33;;
39218;SDS011;24934;52.752;6.964;2023-02-19T08:20:49;27.83;;;24.33;;
39218;SDS011;24934;52.752;6.964;2023-02-19T08:23:17;29.50;;;23.57;;
39218;SDS011;24934;52.752;6.964;2023-02-19T08:25:49;30.93;;;23.60;;
39218;SDS011;24934;52.752;6.964;2023-02-19T08:28:16;28.50;;;23.40;;
39218;SDS011;24934;52.752;6.964;2023-02-19T08:30:43;29.57;;;23.70;;
39218;SDS011;24934;52.752;6.964;2023-02-19T08:33:09;30.30;;;23.37;;
39218;SDS011;24934;52.752;6.964;2023-02-19T08:35:37;27.43;;;22.37;;
39218;SDS011;24934;52.752;6.964;2023-02-19T08:38:04;25.53;;;22.70;;
39218;SDS011;24934;52.752;6.964;2023-02-19T08:40:30;24.40;;;21.93;;
39218;SDS011;24934;52.752;6.964;2023-02-19T08:43:03;25.67;;;22.87;;
39218;SDS011;24934;52.752;6.964;2023-02-19T08:45:41;23.53;;;21.10;;
39218;SDS011;24934;52.752;6.964;2023-02-19T08:48:09;23.10;;;20.97;;
39218;SDS011;24934;52.752;6.964;2023-02-19T08:50:35;23.30;;;20.97;;
39218;SDS011;24934;52.752;6.964;2023-02-19T08:53:01;22.30;;;20.13;;
39218;SDS011;24934;52.752;6.964;2023-02-19T08:55:28;20.83;;;18.93;;
39218;SDS011;24934;52.752;6.964;2023-02-19T08:57:54;22.13;;;19.93;;
39218;SDS011;24934;52.752;6.964;2023-02-19T09:00:21;21.20;;;19.10;;
39218;SDS011;24934;52.752;6.964;2023-02-19T09:02:48;20.70;;;18.80;;
39218;SDS011;24934;52.752;6.964;2023-02-19T09:05:14;22.07;;;19.87;;
39218;SDS011;24934;52.752;6.964;2023-02-19T09:07:40;20.37;;;18.53;;
39218;SDS011;24934;52.752;6.964;2023-02-19T09:10:06;20.17;;;18.37;;
39218;SDS011;24934;52.752;6.964;2023-02-19T09:12:33;19.10;;;17.40;;
39218;SDS011;24934;52.752;6.964;2023-02-19T09:14:59;19.83;;;18.13;;
39218;SDS011;24934;52.752;6.964;2023-02-19T09:17:25;19.77;;;17.97;;
39218;SDS011;24934;52.752;6.964;2023-02-19T09:19:51;19.13;;;17.43;;
39218;SDS011;24934;52.752;6.964;2023-02-19T09:22:19;19.53;;;17.73;;
39218;SDS011;24934;52.752;6.964;2023-02-19T09:24:45;19.83;;;18.10;;
39218;SDS011;24934;52.752;6.964;2023-02-19T09:27:13;19.63;;;18.03;;
39218;SDS011;24934;52.752;6.964;2023-02-19T09:29:40;20.03;;;18.13;;
39218;SDS011;24934;52.752;6.964;2023-02-19T09:32:06;19.47;;;17.83;;
39218;SDS011;24934;52.752;6.964;2023-02-19T09:34:32;19.87;;;18.20;;
39218;SDS011;24934;52.752;6.964;2023-02-19T09:36:58;19.60;;;17.90;;
39218;SDS011;24934;52.752;6.964;2023-02-19T09:39:23;20.73;;;18.83;;
39218;SDS011;24934;52.752;6.964;2023-02-19T09:44:26;18.97;;;17.33;;
39218;SDS011;24934;52.752;6.964;2023-02-19T09:46:59;17.97;;;16.50;;
39218;SDS011;24934;52.752;6.964;2023-02-19T09:52:00;16.97;;;15.57;;
39218;SDS011;24934;52.752;6.964;2023-02-19T09:54:31;18.13;;;16.67;;
39218;SDS011;24934;52.752;6.964;2023-02-19T09:57:00;18.13;;;16.63;;
39218;SDS011;24934;52.752;6.964;2023-02-19T09:59:39;18.10;;;16.50;;
39218;SDS011;24934;52.752;6.964;2023-02-19T10:02:18;17.60;;;16.10;;
39218;SDS011;24934;52.752;6.964;2023-02-19T10:04:46;17.50;;;16.20;;
39218;SDS011;24934;52.752;6.964;2023-02-19T10:07:16;18.13;;;16.45;;
39218;SDS011;24934;52.752;6.964;2023-02-19T10:09:44;17.85;;;16.52;;
39218;SDS011;24934;52.752;6.964;2023-02-19T10:12:24;17.65;;;16.25;;
39218;SDS011;24934;52.752;6.964;2023-02-19T10:14:53;17.88;;;16.38;;
39218;SDS011;24934;52.752;6.964;2023-02-19T10:17:43;17.87;;;16.47;;
39218;SDS011;24934;52.752;6.964;2023-02-19T10:20:19;17.03;;;15.70;;
39218;SDS011;24934;52.752;6.964;2023-02-19T10:22:51;18.10;;;16.60;;
39218;SDS011;24934;52.752;6.964;2023-02-19T10:25:30;17.13;;;15.73;;
39218;SDS011;24934;52.752;6.964;2023-02-19T10:27:58;17.65;;;16.20;;
39218;SDS011;24934;52.752;6.964;2023-02-19T10:30:27;16.48;;;15.27;;
39218;SDS011;24934;52.752;6.964;2023-02-19T10:33:03;15.80;;;14.70;;
39218;SDS011;24934;52.752;6.964;2023-02-19T10:38:19;15.32;;;14.02;;
39218;SDS011;24934;52.752;6.964;2023-02-19T10:40:48;14.55;;;13.45;;
39218;SDS011;24934;52.752;6.964;2023-02-19T10:43:21;15.95;;;14.57;;
39218;SDS011;24934;52.752;6.964;2023-02-19T10:45:55;16.67;;;15.27;;
39218;SDS011;24934;52.752;6.964;2023-02-19T10:48:29;15.40;;;14.30;;
39218;SDS011;24934;52.752;6.964;2023-02-19T10:51:05;15.93;;;14.63;;
39218;SDS011;24934;52.752;6.964;2023-02-19T10:56:13;16.00;;;14.80;;
39218;SDS011;24934;52.752;6.964;2023-02-19T10:58:46;15.77;;;14.50;;
39218;SDS011;24934;52.752;6.964;2023-02-19T11:01:13;16.17;;;14.80;;
39218;SDS011;24934;52.752;6.964;2023-02-19T11:03:45;15.52;;;14.32;;
39218;SDS011;24934;52.752;6.964;2023-02-19T11:06:12;14.98;;;13.88;;
39218;SDS011;24934;52.752;6.964;2023-02-19T11:08:49;15.43;;;14.32;;
39218;SDS011;24934;52.752;6.964;2023-02-19T11:11:32;15.90;;;14.60;;
39218;SDS011;24934;52.752;6.964;2023-02-19T11:14:13;14.65;;;13.52;;
39218;SDS011;24934;52.752;6.964;2023-02-19T11:19:36;14.05;;;13.10;;
39218;SDS011;24934;52.752;6.964;2023-02-19T11:22:18;13.23;;;12.20;;
39218;SDS011;24934;52.752;6.964;2023-02-19T11:24:53;13.98;;;12.88;;
39218;SDS011;24934;52.752;6.964;2023-02-19T11:27:20;13.67;;;12.37;;
39218;SDS011;24934;52.752;6.964;2023-02-19T11:29:47;13.43;;;12.17;;
39218;SDS011;24934;52.752;6.964;2023-02-19T11:32:30;13.00;;;11.97;;
39218;SDS011;24934;52.752;6.964;2023-02-19T11:35:13;19.03;;;17.37;;
39218;SDS011;24934;52.752;6.964;2023-02-19T11:37:55;13.73;;;12.73;;
39218;SDS011;24934;52.752;6.964;2023-02-19T11:40:23;13.87;;;12.73;;
39218;SDS011;24934;52.752;6.964;2023-02-19T11:46:16;13.53;;;12.53;;
39218;SDS011;24934;52.752;6.964;2023-02-19T11:54:27;15.18;;;13.98;;
39218;SDS011;24934;52.752;6.964;2023-02-19T11:58:11;12.48;;;11.68;;
39218;SDS011;24934;52.752;6.964;2023-02-19T12:00:23;12.35;;;11.27;;
39218;SDS011;24934;52.752;6.964;2023-02-19T12:03:03;11.70;;;10.90;;
39218;SDS011;24934;52.752;6.964;2023-02-19T12:05:44;12.03;;;11.10;;
39218;SDS011;24934;52.752;6.964;2023-02-19T12:08:47;13.33;;;12.43;;
39218;SDS011;24934;52.752;6.964;2023-02-19T12:11:43;12.93;;;12.03;;
39218;SDS011;24934;52.752;6.964;2023-02-19T12:22:43;13.02;;;12.13;;
39218;SDS011;24934;52.752;6.964;2023-02-19T12:36:02;11.82;;;11.02;;
39218;SDS011;24934;52.752;6.964;2023-02-19T12:38:44;11.52;;;10.63;;
39218;SDS011;24934;52.752;6.964;2023-02-19T12:41:39;12.00;;;11.20;;
39218;SDS011;24934;52.752;6.964;2023-02-19T12:44:32;12.48;;;11.48;;
39218;SDS011;24934;52.752;6.964;2023-02-19T12:47:14;11.82;;;10.93;;
39218;SDS011;24934;52.752;6.964;2023-02-19T12:49:54;10.55;;;9.73;;
39218;SDS011;24934;52.752;6.964;2023-02-19T12:52:33;10.73;;;9.90;;
39218;SDS011;24934;52.752;6.964;2023-02-19T12:55:20;11.10;;;10.20;;
39218;SDS011;24934;52.752;6.964;2023-02-19T12:57:50;10.98;;;10.18;;
39218;SDS011;24934;52.752;6.964;2023-02-19T13:00:23;11.30;;;10.30;;
39218;SDS011;24934;52.752;6.964;2023-02-19T13:05:54;12.07;;;11.20;;
39218;SDS011;24934;52.752;6.964;2023-02-19T13:08:28;13.13;;;12.13;;
39218;SDS011;24934;52.752;6.964;2023-02-19T13:10:58;12.93;;;12.03;;
39218;SDS011;24934;52.752;6.964;2023-02-19T13:13:40;13.47;;;12.37;;
39218;SDS011;24934;52.752;6.964;2023-02-19T13:16:16;12.93;;;11.90;;
39218;SDS011;24934;52.752;6.964;2023-02-19T13:21:20;13.40;;;12.40;;
39218;SDS011;24934;52.752;6.964;2023-02-19T13:24:08;12.47;;;11.67;;
39218;SDS011;24934;52.752;6.964;2023-02-19T13:32:52;12.77;;;11.87;;
39218;SDS011;24934;52.752;6.964;2023-02-19T13:38:25;12.73;;;11.77;;
39218;SDS011;24934;52.752;6.964;2023-02-19T13:40:52;12.33;;;11.40;;
39218;SDS011;24934;52.752;6.964;2023-02-19T13:43:24;13.10;;;12.10;;
39218;SDS011;24934;52.752;6.964;2023-02-19T13:45:57;12.40;;;11.50;;
39218;SDS011;24934;52.752;6.964;2023-02-19T13:48:35;12.07;;;11.27;;
39218;SDS011;24934;52.752;6.964;2023-02-19T13:56:51;12.53;;;11.53;;
39218;SDS011;24934;52.752;6.964;2023-02-19T13:58:59;12.77;;;11.70;;
39218;SDS011;24934;52.752;6.964;2023-02-19T14:04:29;11.97;;;11.17;;
39218;SDS011;24934;52.752;6.964;2023-02-19T14:09:43;11.80;;;10.90;;
39218;SDS011;24934;52.752;6.964;2023-02-19T14:14:42;12.17;;;11.17;;
39218;SDS011;24934;52.752;6.964;2023-02-19T14:22:59;11.00;;;10.10;;
39218;SDS011;24934;52.752;6.964;2023-02-19T14:27:53;10.97;;;10.20;;
39218;SDS011;24934;52.752;6.964;2023-02-19T14:30:31;10.90;;;10.10;;
39218;SDS011;24934;52.752;6.964;2023-02-19T14:32:59;10.80;;;10.10;;
39218;SDS011;24934;52.752;6.964;2023-02-19T14:35:33;11.57;;;10.67;;
39218;SDS011;24934;52.752;6.964;2023-02-19T14:38:05;11.17;;;10.47;;
39218;SDS011;24934;52.752;6.964;2023-02-19T14:40:37;11.30;;;10.43;;
39218;SDS011;24934;52.752;6.964;2023-02-19T14:43:08;11.50;;;10.70;;
39218;SDS011;24934;52.752;6.964;2023-02-19T14:45:46;12.17;;;11.27;;
39218;SDS011;24934;52.752;6.964;2023-02-19T14:48:22;11.63;;;10.73;;
39218;SDS011;24934;52.752;6.964;2023-02-19T14:50:55;12.40;;;11.20;;
39218;SDS011;24934;52.752;6.964;2023-02-19T14:53:26;13.43;;;12.33;;
39218;SDS011;24934;52.752;6.964;2023-02-19T14:55:54;12.00;;;11.07;;
39218;SDS011;24934;52.752;6.964;2023-02-19T14:58:30;12.73;;;11.67;;
39218;SDS011;24934;52.752;6.964;2023-02-19T15:00:57;12.77;;;11.90;;
39218;SDS011;24934;52.752;6.964;2023-02-19T15:06:00;12.60;;;11.50;;
39218;SDS011;24934;52.752;6.964;2023-02-19T15:08:37;11.77;;;10.87;;
39218;SDS011;24934;52.752;6.964;2023-02-19T15:11:07;12.33;;;11.33;;
39218;SDS011;24934;52.752;6.964;2023-02-19T15:13:36;11.47;;;10.50;;
39218;SDS011;24934;52.752;6.964;2023-02-19T15:16:02;11.73;;;10.70;;
39218;SDS011;24934;52.752;6.964;2023-02-19T15:18:28;11.47;;;10.60;;
39218;SDS011;24934;52.752;6.964;2023-02-19T15:21:00;11.63;;;10.70;;
39218;SDS011;24934;52.752;6.964;2023-02-19T15:23:28;12.70;;;11.50;;
39218;SDS011;24934;52.752;6.964;2023-02-19T15:25:55;13.57;;;12.57;;
39218;SDS011;24934;52.752;6.964;2023-02-19T15:33:21;11.80;;;11.00;;
39218;SDS011;24934;52.752;6.964;2023-02-19T15:35:48;12.20;;;11.40;;
39218;SDS011;24934;52.752;6.964;2023-02-19T15:38:17;12.37;;;11.37;;
39218;SDS011;24934;52.752;6.964;2023-02-19T15:40:44;12.73;;;11.63;;
39218;SDS011;24934;52.752;6.964;2023-02-19T15:43:22;12.83;;;11.90;;
39218;SDS011;24934;52.752;6.964;2023-02-19T15:45:53;11.60;;;10.90;;
39218;SDS011;24934;52.752;6.964;2023-02-19T15:48:27;11.73;;;10.83;;
39218;SDS011;24934;52.752;6.964;2023-02-19T15:51:04;11.57;;;10.67;;
39218;SDS011;24934;52.752;6.964;2023-02-19T15:53:36;11.63;;;10.73;;
39218;SDS011;24934;52.752;6.964;2023-02-19T15:58:49;10.87;;;10.17;;
39218;SDS011;24934;52.752;6.964;2023-02-19T16:01:22;11.40;;;10.40;;
39218;SDS011;24934;52.752;6.964;2023-02-19T16:03:50;10.90;;;10.10;;
39218;SDS011;24934;52.752;6.964;2023-02-19T16:06:18;11.60;;;10.63;;
39218;SDS011;24934;52.752;6.964;2023-02-19T16:08:45;13.10;;;12.00;;
39218;SDS011;24934;52.752;6.964;2023-02-19T16:22:23;11.97;;;10.90;;
39218;SDS011;24934;52.752;6.964;2023-02-19T16:24:57;12.00;;;11.00;;
39218;SDS011;24934;52.752;6.964;2023-02-19T16:29:56;12.13;;;11.23;;
39218;SDS011;24934;52.752;6.964;2023-02-19T16:32:23;12.50;;;11.37;;
39218;SDS011;24934;52.752;6.964;2023-02-19T16:34:49;12.00;;;11.10;;
39218;SDS011;24934;52.752;6.964;2023-02-19T16:40:10;12.37;;;11.37;;
39218;SDS011;24934;52.752;6.964;2023-02-19T16:45:16;12.87;;;11.87;;
39218;SDS011;24934;52.752;6.964;2023-02-19T16:47:42;13.30;;;12.13;;
39218;SDS011;24934;52.752;6.964;2023-02-19T16:50:13;12.90;;;11.90;;
39218;SDS011;24934;52.752;6.964;2023-02-19T16:55:15;14.20;;;13.07;;
39218;SDS011;24934;52.752;6.964;2023-02-19T16:57:41;13.23;;;12.33;;
39218;SDS011;24934;52.752;6.964;2023-02-19T17:00:07;13.40;;;12.30;;